createdAt,value
2022-12-22T00:00:11.436Z,80.29
2022-12-22T00:04:20.246Z,80.23
2022-12-22T00:08:05.998Z,80.22
2022-12-22T00:11:51.331Z,80.19
2022-12-22T00:15:37.303Z,80.41
2022-12-22T00:19:31.047Z,80.30
2022-12-22T00:23:16.521Z,80.25
2022-12-22T00:27:02.222Z,80.34
2022-12-22T00:30:48.356Z,80.39
2022-12-22T00:34:39.080Z,80.21
2022-12-22T00:38:33.018Z,80.27
2022-12-22T00:42:19.656Z,80.13
2022-12-22T00:46:03.972Z,80.25
2022-12-22T00:49:49.563Z,80.31
2022-12-22T00:53:35.569Z,80.26
2022-12-22T00:57:20.850Z,80.14
2022-12-22T01:01:05.681Z,80.35
2022-12-22T01:04:50.350Z,80.29
2022-12-22T01:08:34.762Z,80.28
2022-12-22T01:12:19.269Z,80.44
2022-12-22T01:16:03.500Z,80.28
2022-12-22T01:19:47.600Z,80.40
2022-12-22T01:23:32.451Z,80.52
2022-12-22T01:27:17.147Z,80.64
2022-12-22T01:31:02.568Z,80.62
2022-12-22T01:34:46.836Z,80.87
2022-12-22T01:38:31.440Z,80.93
2022-12-22T01:42:15.837Z,80.71
2022-12-22T01:46:00.559Z,80.73
2022-12-22T01:49:49.811Z,80.68
2022-12-22T01:53:39.891Z,80.76
2022-12-22T01:57:25.016Z,80.66
2022-12-22T02:01:09.328Z,80.75
2022-12-22T02:05:03.219Z,80.71
2022-12-22T02:08:52.439Z,80.67
2022-12-22T02:12:44.443Z,80.64
2022-12-22T02:16:34.738Z,80.63
2022-12-22T02:20:48.952Z,80.51
2022-12-22T02:24:48.445Z,80.59
2022-12-22T02:28:34.299Z,80.65
2022-12-22T02:32:18.743Z,80.45
2022-12-22T02:36:18.648Z,80.63
2022-12-22T02:40:11.681Z,80.64
2022-12-22T02:44:12.277Z,80.51
2022-12-22T02:48:02.945Z,80.24
2022-12-22T02:51:50.563Z,80.40
2022-12-22T02:55:36.452Z,80.48
2022-12-22T02:59:21.107Z,80.52
2022-12-22T03:03:06.355Z,80.44
2022-12-22T03:06:50.999Z,80.40
2022-12-22T03:10:35.765Z,80.57
2022-12-22T03:14:20.131Z,80.75
2022-12-22T03:18:04.847Z,80.63
2022-12-22T03:21:49.325Z,80.75
2022-12-22T03:25:34.132Z,80.71
2022-12-22T03:29:00.739Z,80.65
2022-12-22T03:32:27.214Z,80.73
2022-12-22T03:35:54.299Z,80.80
2022-12-22T03:39:20.584Z,80.78
2022-12-22T03:43:05.283Z,80.71
2022-12-22T03:46:32.384Z,80.71
2022-12-22T03:49:59.523Z,80.83
2022-12-22T03:53:26.455Z,80.78
2022-12-22T03:56:54.180Z,80.81
2022-12-22T04:00:21.933Z,80.83
2022-12-22T04:03:49.601Z,80.64
2022-12-22T04:07:16.789Z,80.80
2022-12-22T04:11:01.268Z,80.90
2022-12-22T04:14:33.386Z,80.89
2022-12-22T04:18:01.917Z,81.04
2022-12-22T04:21:29.038Z,80.84
2022-12-22T04:24:56.075Z,80.77
2022-12-22T04:28:23.068Z,80.70
2022-12-22T04:31:50.126Z,80.61
2022-12-22T04:35:16.830Z,80.49
2022-12-22T04:38:43.325Z,80.40
2022-12-22T04:42:10.127Z,80.29
2022-12-22T04:45:37.124Z,80.32
2022-12-22T04:49:03.926Z,80.46
2022-12-22T04:52:31.168Z,80.48
2022-12-22T04:56:00.948Z,80.50
2022-12-22T04:59:27.963Z,80.59
2022-12-22T05:02:55.454Z,80.65
2022-12-22T05:06:22.769Z,80.78
2022-12-22T05:09:49.824Z,80.85
2022-12-22T05:13:17.015Z,80.81
2022-12-22T05:16:44.076Z,80.90
2022-12-22T05:20:12.665Z,80.87
2022-12-22T05:23:39.542Z,80.94
2022-12-22T05:27:06.111Z,80.88
2022-12-22T05:30:33.242Z,81.02
2022-12-22T05:33:59.645Z,80.97
2022-12-22T05:37:26.360Z,80.96
2022-12-22T05:40:56.808Z,80.84
2022-12-22T05:44:26.628Z,80.94
2022-12-22T05:47:54.285Z,80.85
2022-12-22T05:51:22.057Z,80.88
2022-12-22T05:54:49.071Z,80.90
2022-12-22T05:58:16.845Z,80.99
2022-12-22T06:01:43.481Z,80.80
2022-12-22T06:05:12.218Z,80.76
2022-12-22T06:08:39.546Z,80.69
2022-12-22T06:12:06.965Z,80.64
2022-12-22T06:15:33.565Z,80.66
2022-12-22T06:19:00.706Z,80.48
2022-12-22T06:22:27.367Z,80.47
2022-12-22T06:26:02.444Z,80.51
2022-12-22T06:29:28.997Z,80.37
2022-12-22T06:32:55.701Z,80.60
2022-12-22T06:36:22.513Z,80.61
2022-12-22T06:39:49.235Z,80.73
2022-12-22T06:43:17.176Z,80.82
2022-12-22T06:46:44.170Z,80.68
2022-12-22T06:50:12.492Z,80.78
2022-12-22T06:53:39.332Z,80.78
2022-12-22T06:57:06.375Z,80.88
2022-12-22T07:00:33.842Z,80.89
2022-12-22T07:04:00.772Z,80.86
2022-12-22T07:07:27.719Z,80.77
2022-12-22T07:11:00.908Z,80.79
2022-12-22T07:14:27.435Z,80.91
2022-12-22T07:17:56.264Z,80.79
2022-12-22T07:21:22.969Z,80.70
2022-12-22T07:24:50.735Z,80.46
2022-12-22T07:28:20.997Z,80.52
2022-12-22T07:31:48.153Z,80.32
2022-12-22T07:35:15.423Z,80.29
2022-12-22T07:38:44.180Z,80.33
2022-12-22T07:42:31.575Z,80.29
2022-12-22T07:45:58.213Z,80.23
2022-12-22T07:49:42.518Z,80.28
2022-12-22T07:53:09.425Z,80.40
2022-12-22T07:56:38.675Z,80.50
2022-12-22T08:00:06.241Z,80.36
2022-12-22T08:03:38.705Z,80.50
2022-12-22T08:07:05.685Z,80.46
2022-12-22T08:10:33.245Z,80.55
2022-12-22T08:14:01.900Z,80.50
2022-12-22T08:17:29.895Z,80.66
2022-12-22T08:20:56.648Z,80.75
2022-12-22T08:24:25.428Z,80.73
2022-12-22T08:27:55.827Z,80.63
2022-12-22T08:31:23.849Z,80.55
2022-12-22T08:34:52.153Z,80.52
2022-12-22T08:38:19.466Z,80.43
2022-12-22T08:41:52.172Z,80.57
2022-12-22T08:45:19.027Z,80.37
2022-12-22T08:48:46.271Z,80.32
2022-12-22T08:52:18.397Z,80.24
2022-12-22T08:55:54.569Z,80.34
2022-12-22T08:59:24.616Z,80.21
2022-12-22T09:02:52.453Z,80.24
2022-12-22T09:06:21.508Z,80.27
2022-12-22T09:09:54.917Z,80.27
2022-12-22T09:13:21.424Z,80.42
2022-12-22T09:16:48.468Z,80.41
2022-12-22T09:20:16.750Z,80.56
2022-12-22T09:23:43.646Z,80.55
2022-12-22T09:27:10.669Z,80.74
2022-12-22T09:30:37.446Z,80.73
2022-12-22T09:34:04.020Z,80.81
2022-12-22T09:37:30.644Z,80.90
2022-12-22T09:40:57.453Z,80.88
2022-12-22T09:44:28.023Z,80.83
2022-12-22T09:47:56.622Z,80.96
2022-12-22T09:51:27.437Z,80.81
2022-12-22T09:54:54.788Z,80.78
2022-12-22T09:58:26.961Z,80.56
2022-12-22T10:02:05.326Z,80.56
2022-12-22T10:05:41.363Z,80.64
2022-12-22T10:09:47.741Z,80.72
2022-12-22T10:13:07.772Z,80.66
2022-12-22T10:16:34.532Z,80.40
2022-12-22T10:20:25.673Z,80.25
2022-12-22T10:23:52.616Z,80.20
2022-12-22T10:27:25.807Z,80.16
2022-12-22T10:31:13.985Z,80.32
2022-12-22T10:34:45.793Z,80.10
2022-12-22T10:38:23.116Z,80.35
2022-12-22T10:41:56.956Z,80.46
2022-12-22T10:45:28.477Z,80.44
2022-12-22T10:49:10.156Z,80.60
2022-12-22T10:52:37.937Z,80.40
2022-12-22T10:56:18.609Z,80.73
2022-12-22T10:59:52.456Z,80.66
2022-12-22T11:03:32.807Z,80.45
2022-12-22T11:07:02.199Z,80.30
2022-12-22T11:10:40.008Z,80.04
2022-12-22T11:14:15.908Z,80.11
2022-12-22T11:17:54.658Z,80.09
2022-12-22T11:21:29.652Z,80.20
2022-12-22T11:25:17.019Z,79.90
2022-12-22T11:28:56.305Z,79.96
2022-12-22T11:32:43.435Z,79.70
2022-12-22T11:36:17.158Z,79.92
2022-12-22T11:39:53.014Z,79.77
2022-12-22T11:43:35.339Z,79.92
2022-12-22T11:47:12.930Z,79.73
2022-12-22T11:50:58.199Z,79.82
2022-12-22T11:54:59.304Z,79.78
2022-12-22T11:58:43.785Z,80.04
2022-12-22T12:02:44.192Z,79.85
2022-12-22T12:07:00.171Z,79.73
2022-12-22T12:10:30.542Z,79.99
2022-12-22T12:14:12.636Z,80.03
2022-12-22T12:17:52.487Z,80.23
2022-12-22T12:21:29.834Z,80.12
2022-12-22T12:25:13.496Z,79.88
2022-12-22T12:28:53.882Z,79.78
2022-12-22T12:32:27.406Z,79.58
2022-12-22T12:36:03.250Z,79.70
2022-12-22T12:39:40.895Z,79.69
2022-12-22T12:43:15.951Z,79.70
2022-12-22T12:47:10.171Z,79.87
2022-12-22T12:50:38.873Z,79.57
2022-12-22T12:54:37.502Z,79.89
2022-12-22T12:58:07.921Z,79.78
2022-12-22T13:02:02.169Z,79.91
2022-12-22T13:05:36.959Z,79.92
2022-12-22T13:09:49.336Z,80.04
2022-12-22T13:13:11.452Z,80.08
2022-12-22T13:16:40.754Z,79.92
2022-12-22T13:20:15.795Z,80.01
2022-12-22T13:24:22.340Z,80.05
2022-12-22T13:27:34.693Z,80.04
2022-12-22T13:31:05.425Z,80.03
2022-12-22T13:35:20.633Z,80.01
2022-12-22T13:38:36.290Z,80.10
2022-12-22T13:42:02.975Z,80.12
2022-12-22T13:45:36.196Z,79.98
2022-12-22T13:49:05.146Z,79.88
2022-12-22T13:52:32.295Z,80.14
2022-12-22T13:56:01.202Z,80.23
2022-12-22T13:59:35.068Z,79.79
2022-12-22T14:03:01.528Z,80.09
2022-12-22T14:06:33.846Z,80.07
2022-12-22T14:10:01.211Z,79.93
2022-12-22T14:13:34.858Z,80.01
2022-12-22T14:17:07.028Z,80.01
2022-12-22T14:20:40.485Z,79.90
2022-12-22T14:24:08.367Z,80.02
2022-12-22T14:27:43.914Z,79.78
2022-12-22T14:31:13.938Z,80.11
2022-12-22T14:34:41.173Z,80.31
2022-12-22T14:38:27.628Z,80.40
2022-12-22T14:41:57.236Z,80.66
2022-12-22T14:45:26.856Z,80.49
2022-12-22T14:48:53.588Z,80.47
2022-12-22T14:52:33.800Z,80.54
2022-12-22T14:56:00.848Z,80.46
2022-12-22T14:59:31.508Z,80.52
2022-12-22T15:03:02.201Z,80.42
2022-12-22T15:06:40.826Z,80.35
2022-12-22T15:10:16.374Z,80.33
2022-12-22T15:13:46.588Z,80.39
2022-12-22T15:17:26.241Z,80.65
2022-12-22T15:20:58.100Z,80.34
2022-12-22T15:24:25.596Z,80.27
2022-12-22T15:27:53.777Z,80.28
2022-12-22T15:31:25.375Z,80.12
2022-12-22T15:34:55.153Z,80.10
2022-12-22T15:38:23.690Z,80.26
2022-12-22T15:41:51.920Z,80.09
2022-12-22T15:45:24.074Z,80.05
2022-12-22T15:48:54.127Z,80.02
2022-12-22T15:52:21.052Z,80.07
2022-12-22T15:55:51.817Z,80.03
2022-12-22T15:59:24.159Z,80.10
2022-12-22T16:02:51.181Z,80.26
2022-12-22T16:06:20.833Z,80.20
2022-12-22T16:09:50.379Z,80.45
2022-12-22T16:13:26.856Z,80.67
2022-12-22T16:16:53.866Z,80.48
2022-12-22T16:20:21.792Z,80.85
2022-12-22T16:23:52.676Z,80.40
2022-12-22T16:27:19.887Z,80.69
2022-12-22T16:30:48.793Z,80.57
2022-12-22T16:34:16.166Z,80.41
2022-12-22T16:37:45.267Z,80.69
2022-12-22T16:41:21.986Z,80.49
2022-12-22T16:44:51.798Z,80.51
2022-12-22T16:48:21.671Z,80.31
2022-12-22T16:51:52.561Z,80.64
2022-12-22T16:55:21.586Z,80.44
2022-12-22T16:58:49.443Z,80.66
2022-12-22T17:02:29.781Z,80.67
2022-12-22T17:06:01.979Z,80.47
2022-12-22T17:09:32.755Z,80.69
2022-12-22T17:13:02.687Z,80.49
2022-12-22T17:16:30.093Z,80.61
2022-12-22T17:19:59.166Z,80.90
2022-12-22T17:23:36.869Z,80.63
2022-12-22T17:27:08.795Z,80.87
2022-12-22T17:30:42.545Z,80.21
2022-12-22T17:34:17.666Z,80.90
2022-12-22T17:37:45.648Z,80.90
2022-12-22T17:41:15.672Z,81.01
2022-12-22T17:44:44.631Z,80.72
2022-12-22T17:48:14.268Z,80.76
2022-12-22T17:51:45.671Z,81.00
2022-12-22T17:56:01.335Z,80.80
2022-12-22T17:59:14.090Z,80.39
2022-12-22T18:02:41.039Z,80.77
2022-12-22T18:06:12.894Z,80.71
2022-12-22T18:09:44.384Z,80.83
2022-12-22T18:13:18.991Z,80.82
2022-12-22T18:16:46.792Z,80.81
2022-12-22T18:20:18.168Z,80.89
2022-12-22T18:23:49.842Z,81.00
2022-12-22T18:27:18.327Z,80.60
2022-12-22T18:30:46.323Z,80.75
2022-12-22T18:34:14.607Z,80.86
2022-12-22T18:37:42.305Z,80.68
2022-12-22T18:41:18.752Z,80.69
2022-12-22T18:44:46.255Z,80.76
2022-12-22T18:48:15.298Z,80.71
2022-12-22T18:51:44.424Z,80.82
2022-12-22T18:55:19.691Z,80.94
2022-12-22T18:58:47.559Z,80.71
2022-12-22T19:02:25.819Z,81.00
2022-12-22T19:05:54.551Z,80.60
2022-12-22T19:09:23.689Z,80.78
2022-12-22T19:12:58.703Z,80.83
2022-12-22T19:16:29.157Z,80.82
2022-12-22T19:19:57.783Z,81.04
2022-12-22T19:23:26.723Z,80.82
2022-12-22T19:26:53.920Z,80.70
2022-12-22T19:30:23.815Z,80.86
2022-12-22T19:33:51.862Z,80.85
2022-12-22T19:37:18.740Z,80.90
2022-12-22T19:40:45.913Z,81.15
2022-12-22T19:44:25.962Z,81.04
2022-12-22T19:47:55.062Z,80.80
2022-12-22T19:51:23.746Z,80.93
2022-12-22T19:54:58.092Z,81.03
2022-12-22T19:58:30.430Z,80.90
2022-12-22T20:02:01.350Z,80.88
2022-12-22T20:05:33.057Z,81.07
2022-12-22T20:09:03.602Z,80.85
2022-12-22T20:12:36.721Z,80.85
2022-12-22T20:16:05.938Z,81.02
2022-12-22T20:19:43.712Z,81.01
2022-12-22T20:23:22.130Z,80.93
2022-12-22T20:26:54.638Z,80.65
2022-12-22T20:30:24.180Z,80.69
2022-12-22T20:33:55.193Z,80.86
2022-12-22T20:37:23.254Z,80.76
2022-12-22T20:40:52.768Z,80.74
2022-12-22T20:44:33.182Z,80.65
2022-12-22T20:48:02.297Z,80.57
2022-12-22T20:51:34.759Z,80.60
2022-12-22T20:55:02.833Z,80.73
2022-12-22T20:58:35.177Z,80.86
2022-12-22T21:02:02.054Z,80.70
2022-12-22T21:05:29.467Z,80.63
2022-12-22T21:08:58.946Z,80.77
2022-12-22T21:12:27.219Z,80.92
2022-12-22T21:15:55.190Z,81.36
2022-12-22T21:19:23.585Z,80.76
2022-12-22T21:22:53.075Z,81.22
2022-12-22T21:26:26.696Z,80.93
2022-12-22T21:29:52.358Z,81.09
2022-12-22T21:33:20.790Z,80.97
2022-12-22T21:36:55.782Z,80.68
2022-12-22T21:40:26.556Z,80.85
2022-12-22T21:43:55.293Z,80.68
2022-12-22T21:47:22.744Z,80.81
2022-12-22T21:50:54.246Z,80.89
2022-12-22T21:54:26.576Z,80.65
2022-12-22T21:57:56.175Z,80.59
2022-12-22T22:01:23.793Z,80.52
2022-12-22T22:04:54.998Z,80.30
2022-12-22T22:08:23.599Z,80.35
2022-12-22T22:12:09.486Z,80.36
2022-12-22T22:15:36.468Z,80.44
2022-12-22T22:19:04.214Z,80.58
2022-12-22T22:22:32.412Z,80.79
2022-12-22T22:26:02.105Z,80.63
2022-12-22T22:29:29.864Z,80.65
2022-12-22T22:32:58.197Z,80.67
2022-12-22T22:36:25.013Z,80.66
2022-12-22T22:40:12.898Z,80.73
2022-12-22T22:43:44.002Z,80.77
2022-12-22T22:47:11.580Z,80.82
2022-12-22T22:50:41.461Z,80.95
2022-12-22T22:54:18.388Z,80.76
2022-12-22T22:57:45.456Z,80.72
2022-12-22T23:01:13.559Z,81.03
2022-12-22T23:04:39.868Z,80.82
2022-12-22T23:08:07.743Z,80.48
2022-12-22T23:11:34.747Z,80.48
2022-12-22T23:15:02.393Z,80.48
2022-12-22T23:18:31.829Z,80.45
2022-12-22T23:21:59.326Z,80.37
2022-12-22T23:25:26.081Z,80.55
2022-12-22T23:28:56.425Z,80.57
2022-12-22T23:32:25.817Z,80.60
2022-12-22T23:35:54.254Z,80.30
2022-12-22T23:39:21.634Z,80.46
2022-12-22T23:42:54.817Z,80.42
2022-12-22T23:46:24.567Z,80.28
2022-12-22T23:49:51.990Z,80.44
2022-12-22T23:53:19.110Z,80.80
2022-12-22T23:56:46.467Z,80.42
